METAR Data
IDs: Format: Raw Decoded Include TAF

Data at: 0854 UTC 13 Aug 2022

LKNA 130830Z 36005KT 310V050 9999 FEW034 BKN120 22/14 Q1016 NOSIG RMK BLU BLU